Time;durP1;ratioP1;P1;durP2;ratioP2;P2;SDS_P1;SDS_P2;PMS_P1;PMS_P2;Temp;Humidity;BMP_temperature;BMP_pressure;BME280_temperature;BME280_humidity;BME280_pressure;Samples;Min_cycle;Max_cycle;Signal;HPM_P1;HPM_P2
2023/05/24 00:02:22;;;;;;;10.60;9.65;;;;;;;;;;5093510;28;20032;-64
2023/05/24 00:04:48;;;;;;;10.02;9.00;;;;;;;;;;5093558;28;20024;-65
2023/05/24 00:07:15;;;;;;;10.90;9.57;;;;;;;;;;5093359;28;20028;-65
2023/05/24 00:09:40;;;;;;;11.20;10.10;;;;;;;;;;5093595;28;20032;-65
2023/05/24 00:12:06;;;;;;;11.57;10.38;;;;;;;;;;5111692;22;20067;-61
2023/05/24 00:14:31;;;;;;;11.30;10.20;;;;;;;;;;5114011;28;20016;-60
2023/05/24 00:16:57;;;;;;;11.13;9.85;;;;;;;;;;5114161;28;20447;-61
2023/05/24 00:19:22;;;;;;;12.95;10.65;;;;;;;;;;5114058;28;20031;-60
2023/05/24 00:21:47;;;;;;;12.35;10.48;;;;;;;;;;5114159;28;20030;-61
2023/05/24 00:24:13;;;;;;;11.77;10.00;;;;;;;;;;5113949;28;20050;-61
2023/05/24 00:26:39;;;;;;;11.57;10.43;;;;;;;;;;5114035;28;20027;-61
2023/05/24 00:29:04;;;;;;;11.10;10.00;;;;;;;;;;5098766;28;20475;-60
2023/05/24 00:31:30;;;;;;;10.73;9.70;;;;;;;;;;5099525;28;20035;-60
2023/05/24 00:33:55;;;;;;;12.30;9.85;;;;;;;;;;5099811;28;20016;-60
2023/05/24 00:36:20;;;;;;;10.60;9.55;;;;;;;;;;5133678;27;20552;-61
2023/05/24 00:38:46;;;;;;;9.90;8.88;;;;;;;;;;5117565;28;20028;-61
2023/05/24 00:41:14;;;;;;;9.32;8.43;;;;;;;;;;5117936;28;20038;-61
2023/05/24 00:43:42;;;;;;;11.00;9.10;;;;;;;;;;5117638;28;20043;-61
2023/05/24 00:46:07;;;;;;;9.90;9.00;;;;;;;;;;5117142;28;20035;-61
2023/05/24 00:48:32;;;;;;;8.85;8.05;;;;;;;;;;5117366;28;20387;-60
2023/05/24 00:50:58;;;;;;;10.20;8.88;;;;;;;;;;5117485;28;20038;-60
2023/05/24 00:53:23;;;;;;;9.88;8.90;;;;;;;;;;5098889;28;20077;-60
2023/05/24 00:55:49;;;;;;;9.18;8.10;;;;;;;;;;5098890;28;20024;-60
2023/05/24 00:58:15;;;;;;;10.48;8.68;;;;;;;;;;5082366;28;20027;-61
2023/05/24 01:00:41;;;;;;;9.85;8.85;;;;;;;;;;5133169;27;20110;-61
2023/05/24 01:03:07;;;;;;;8.80;8.00;;;;;;;;;;5117350;28;20027;-60
2023/05/24 01:05:32;;;;;;;10.80;9.75;;;;;;;;;;5117274;28;20023;-60
2023/05/24 01:08:01;;;;;;;9.80;8.90;;;;;;;;;;5099019;28;20028;-60
2023/05/24 01:10:33;;;;;;;11.38;8.88;;;;;;;;;;5117318;28;20030;-61
2023/05/24 01:13:04;;;;;;;10.75;8.77;;;;;;;;;;5116771;28;20035;-60
2023/05/24 01:15:48;;;;;;;10.43;9.07;;;;;;;;;;5081866;28;20031;-61
2023/05/24 01:18:34;;;;;;;9.82;8.80;;;;;;;;;;5116735;28;20122;-65
2023/05/24 01:24:18;;;;;;;8.73;8.00;;;;;;;;;;5094073;28;20488;-66
2023/05/24 01:27:00;;;;;;;8.95;8.07;;;;;;;;;;5096014;28;20035;-64
2023/05/24 01:29:27;;;;;;;10.20;8.43;;;;;;;;;;5096034;28;20016;-64
2023/05/24 01:31:52;;;;;;;8.85;7.95;;;;;;;;;;5111553;28;20032;-64
2023/05/24 01:34:19;;;;;;;9.20;8.35;;;;;;;;;;5077890;28;20020;-62
2023/05/24 01:36:45;;;;;;;9.50;8.70;;;;;;;;;;5077684;28;20023;-64
2023/05/24 01:39:11;;;;;;;9.32;8.43;;;;;;;;;;5077981;28;20040;-64
2023/05/24 01:41:46;;;;;;;9.90;8.27;;;;;;;;;;5095796;28;20047;-64
2023/05/24 01:44:23;;;;;;;9.18;8.23;;;;;;;;;;5111684;28;20221;-64
2023/05/24 01:46:52;;;;;;;10.05;9.05;;;;;;;;;;5095934;28;20032;-62
2023/05/24 01:49:22;;;;;;;10.77;8.93;;;;;;;;;;5096063;28;20475;-61
2023/05/24 01:51:49;;;;;;;10.00;8.90;;;;;;;;;;5111824;28;20024;-61
2023/05/24 01:54:17;;;;;;;10.43;9.43;;;;;;;;;;5111326;28;20032;-61
2023/05/24 01:56:51;;;;;;;10.45;9.50;;;;;;;;;;5095824;28;20028;-60
2023/05/24 01:59:16;;;;;;;10.68;9.57;;;;;;;;;;5077594;28;20047;-61
2023/05/24 02:01:42;;;;;;;10.35;8.85;;;;;;;;;;5095980;28;20036;-61
2023/05/24 02:04:07;;;;;;;10.75;9.60;;;;;;;;;;5095412;28;20028;-60
2023/05/24 02:06:33;;;;;;;9.32;8.43;;;;;;;;;;5095306;28;20032;-61
2023/05/24 02:08:59;;;;;;;11.23;10.15;;;;;;;;;;5095401;28;20050;-60
2023/05/24 02:11:24;;;;;;;10.43;9.30;;;;;;;;;;5111038;28;20130;-60
2023/05/24 02:13:51;;;;;;;11.10;9.98;;;;;;;;;;5076947;28;20012;-60
2023/05/24 02:16:16;;;;;;;10.40;9.40;;;;;;;;;;5095126;28;20119;-60
2023/05/24 02:18:43;;;;;;;10.55;9.45;;;;;;;;;;5077459;28;20020;-61
2023/05/24 02:21:08;;;;;;;10.98;9.98;;;;;;;;;;5095031;28;20032;-62
2023/05/24 02:23:34;;;;;;;10.65;9.60;;;;;;;;;;5095237;28;20051;-61
2023/05/24 02:26:00;;;;;;;10.40;9.23;;;;;;;;;;5077410;28;20379;-62
2023/05/24 02:28:25;;;;;;;10.93;9.93;;;;;;;;;;5077099;28;20403;-61
2023/05/24 02:30:55;;;;;;;11.35;9.77;;;;;;;;;;5077068;28;20020;-61
2023/05/24 02:33:20;;;;;;;10.20;9.27;;;;;;;;;;5095196;28;20024;-60
2023/05/24 02:35:46;;;;;;;10.48;8.93;;;;;;;;;;5077099;28;20371;-60
2023/05/24 02:38:11;;;;;;;10.13;9.05;;;;;;;;;;5077048;28;20030;-63
2023/05/24 02:40:37;;;;;;;9.75;8.63;;;;;;;;;;5095041;28;20055;-64
2023/05/24 02:43:02;;;;;;;10.38;9.38;;;;;;;;;;5076812;28;20056;-64
2023/05/24 02:45:28;;;;;;;10.88;9.80;;;;;;;;;;5076619;28;20028;-64
2023/05/24 02:47:53;;;;;;;11.07;10.02;;;;;;;;;;5095013;28;20023;-63
2023/05/24 02:50:18;;;;;;;10.20;9.25;;;;;;;;;;5094634;28;20466;-63
2023/05/24 02:52:44;;;;;;;9.63;8.77;;;;;;;;;;5076465;28;20016;-63
2023/05/24 02:55:09;;;;;;;10.60;9.57;;;;;;;;;;5076512;28;20035;-64
2023/05/24 02:57:36;;;;;;;11.38;10.27;;;;;;;;;;5110466;28;20054;-64
2023/05/24 03:00:03;;;;;;;10.93;9.82;;;;;;;;;;5110218;28;20502;-64
2023/05/24 03:02:29;;;;;;;11.43;10.13;;;;;;;;;;5076194;28;20119;-64
2023/05/24 03:04:55;;;;;;;13.10;10.90;;;;;;;;;;5110326;28;20119;-64
2023/05/24 03:07:20;;;;;;;11.70;10.48;;;;;;;;;;5094685;28;20040;-64
2023/05/24 03:09:47;;;;;;;11.80;10.60;;;;;;;;;;5076085;28;20026;-64
2023/05/24 03:12:13;;;;;;;12.32;10.98;;;;;;;;;;5076435;28;20024;-61
2023/05/24 03:14:42;;;;;;;15.27;12.23;;;;;;;;;;5076462;28;20466;-61
2023/05/24 03:17:07;;;;;;;11.37;10.20;;;;;;;;;;5075694;28;20062;-61
2023/05/24 03:19:33;;;;;;;12.85;11.38;;;;;;;;;;5110193;28;20306;-61
2023/05/24 03:21:59;;;;;;;13.35;11.00;;;;;;;;;;5059426;28;20446;-61
2023/05/24 03:24:24;;;;;;;14.23;11.52;;;;;;;;;;5076436;28;20149;-61
2023/05/24 03:26:50;;;;;;;13.45;12.07;;;;;;;;;;5109664;28;20051;-60
2023/05/24 03:29:16;;;;;;;14.77;12.05;;;;;;;;;;5109707;28;20020;-60
2023/05/24 03:31:42;;;;;;;12.75;11.32;;;;;;;;;;5109674;28;20515;-60
2023/05/24 03:34:08;;;;;;;13.75;11.68;;;;;;;;;;5059428;28;20062;-60
2023/05/24 03:36:35;;;;;;;12.07;10.90;;;;;;;;;;5109702;28;20107;-60
2023/05/24 03:39:03;;;;;;;13.48;11.40;;;;;;;;;;5075970;28;20035;-60
2023/05/24 03:41:29;;;;;;;10.15;9.15;;;;;;;;;;5076096;28;20498;-60
2023/05/24 03:43:58;;;;;;;11.10;10.00;;;;;;;;;;5109333;28;20036;-61
2023/05/24 03:46:25;;;;;;;11.95;10.75;;;;;;;;;;5075704;28;20058;-60
2023/05/24 03:48:50;;;;;;;14.20;12.70;;;;;;;;;;5093360;28;20040;-60
2023/05/24 03:51:16;;;;;;;12.35;10.90;;;;;;;;;;5093524;28;20028;-60
2023/05/24 03:53:41;;;;;;;17.50;11.43;;;;;;;;;;5076021;28;20028;-60
2023/05/24 03:56:07;;;;;;;10.02;9.07;;;;;;;;;;5093803;28;20028;-60
2023/05/24 03:58:32;;;;;;;16.00;13.75;;;;;;;;;;5075576;28;20419;-60
2023/05/24 04:00:58;;;;;;;12.20;10.88;;;;;;;;;;5109006;28;20052;-59
2023/05/24 04:03:24;;;;;;;10.90;9.85;;;;;;;;;;5077445;28;20024;-60
2023/05/24 04:05:50;;;;;;;10.00;8.95;;;;;;;;;;5098042;28;20031;-60
2023/05/24 04:08:15;;;;;;;12.18;10.90;;;;;;;;;;5113400;28;20036;-59
2023/05/24 04:10:41;;;;;;;12.10;10.55;;;;;;;;;;5097670;28;20368;-59
2023/05/24 04:13:09;;;;;;;13.93;12.45;;;;;;;;;;5078736;28;20108;-59
2023/05/24 04:15:36;;;;;;;11.27;9.60;;;;;;;;;;5077185;28;20490;-60
2023/05/24 04:18:02;;;;;;;13.65;8.85;;;;;;;;;;5078746;28;20511;-59
2023/05/24 04:20:29;;;;;;;10.95;9.85;;;;;;;;;;5079191;28;20043;-60
2023/05/24 04:22:55;;;;;;;11.27;10.13;;;;;;;;;;5097120;28;20048;-60
2023/05/24 04:25:21;;;;;;;11.45;10.20;;;;;;;;;;5078731;28;20056;-60
2023/05/24 04:27:49;;;;;;;13.82;12.25;;;;;;;;;;5097423;28;20025;-60
2023/05/24 04:30:15;;;;;;;10.88;9.75;;;;;;;;;;5097398;28;20103;-60
2023/05/24 04:32:43;;;;;;;12.35;11.10;;;;;;;;;;5079605;28;20136;-60
2023/05/24 04:35:12;;;;;;;13.95;10.20;;;;;;;;;;5096965;28;20476;-61
2023/05/24 04:37:38;;;;;;;10.93;9.48;;;;;;;;;;5078975;28;20103;-60
2023/05/24 04:40:04;;;;;;;13.90;10.07;;;;;;;;;;5096520;28;20083;-60
2023/05/24 04:42:30;;;;;;;15.75;13.35;;;;;;;;;;5079017;28;20479;-60
2023/05/24 04:44:56;;;;;;;12.82;11.48;;;;;;;;;;5112550;28;20360;-60
2023/05/24 04:47:21;;;;;;;10.20;9.18;;;;;;;;;;5096618;28;20043;-61
2023/05/24 04:49:47;;;;;;;11.00;9.93;;;;;;;;;;5089638;28;20070;-62
2023/05/24 04:52:12;;;;;;;11.52;9.48;;;;;;;;;;5076332;28;20024;-60
2023/05/24 04:54:37;;;;;;;11.38;9.25;;;;;;;;;;5076858;28;20029;-60
2023/05/24 04:57:09;;;;;;;13.60;10.25;;;;;;;;;;5076943;28;20052;-60
2023/05/24 04:59:35;;;;;;;11.25;10.15;;;;;;;;;;5076864;28;20040;-60
2023/05/24 05:02:00;;;;;;;12.23;9.98;;;;;;;;;;5058490;28;20421;-61
2023/05/24 05:04:25;;;;;;;13.32;9.80;;;;;;;;;;5076565;28;20063;-62
2023/05/24 05:06:51;;;;;;;12.60;9.43;;;;;;;;;;5082032;28;20054;-62
2023/05/24 05:09:16;;;;;;;10.57;9.02;;;;;;;;;;5096621;28;20487;-63
2023/05/24 05:11:42;;;;;;;9.95;8.95;;;;;;;;;;5096541;28;20024;-60
2023/05/24 05:14:10;;;;;;;10.13;8.38;;;;;;;;;;5077873;28;20028;-62
2023/05/24 05:16:36;;;;;;;11.18;10.02;;;;;;;;;;5096293;28;20077;-60
2023/05/24 05:19:05;;;;;;;12.13;10.30;;;;;;;;;;5089339;28;20403;-60
2023/05/24 05:21:31;;;;;;;11.98;10.77;;;;;;;;;;5082235;28;20020;-61
2023/05/24 05:23:58;;;;;;;11.77;10.63;;;;;;;;;;5105242;28;20047;-60
2023/05/24 05:26:23;;;;;;;12.05;10.85;;;;;;;;;;5114319;28;20116;-60
2023/05/24 05:28:48;;;;;;;11.73;10.40;;;;;;;;;;5115549;28;20050;-57
2023/05/24 05:31:13;;;;;;;10.60;9.52;;;;;;;;;;5115791;28;20024;-59
2023/05/24 05:33:39;;;;;;;11.63;10.43;;;;;;;;;;5116163;28;20028;-61
2023/05/24 05:36:05;;;;;;;13.00;10.65;;;;;;;;;;5070303;28;20023;-62
2023/05/24 05:38:30;;;;;;;11.15;10.07;;;;;;;;;;5093987;28;20034;-62
2023/05/24 05:40:56;;;;;;;11.32;10.30;;;;;;;;;;5093986;28;20034;-66
2023/05/24 05:43:21;;;;;;;11.63;10.43;;;;;;;;;;5058550;28;20036;-65
2023/05/24 05:45:47;;;;;;;11.15;10.05;;;;;;;;;;5093452;28;20032;-63
2023/05/24 05:48:12;;;;;;;12.30;10.68;;;;;;;;;;5095135;28;20639;-62
2023/05/24 05:50:37;;;;;;;11.55;10.45;;;;;;;;;;5095077;28;20024;-62
2023/05/24 05:53:03;;;;;;;11.43;10.30;;;;;;;;;;5095060;28;20111;-62
2023/05/24 05:55:29;;;;;;;11.60;10.60;;;;;;;;;;5095203;28;20539;-62
2023/05/24 05:57:54;;;;;;;10.40;9.43;;;;;;;;;;5094840;28;20421;-62
2023/05/24 06:00:22;;;;;;;10.90;9.90;;;;;;;;;;5094964;28;20028;-62
2023/05/24 06:02:47;;;;;;;12.15;9.88;;;;;;;;;;5094497;28;20081;-62
2023/05/24 06:05:13;;;;;;;11.27;10.18;;;;;;;;;;5093417;28;20119;-62
2023/05/24 06:07:39;;;;;;;10.95;9.90;;;;;;;;;;5093487;28;20149;-63
2023/05/24 06:10:05;;;;;;;10.90;9.80;;;;;;;;;;5093430;28;20099;-62
2023/05/24 06:12:30;;;;;;;10.88;9.85;;;;;;;;;;5093878;28;20465;-63
2023/05/24 06:14:56;;;;;;;10.57;9.55;;;;;;;;;;5093554;28;20107;-63
2023/05/24 06:17:23;;;;;;;13.85;10.38;;;;;;;;;;5076002;28;20012;-63
2023/05/24 06:19:50;;;;;;;11.48;10.35;;;;;;;;;;5094164;28;20165;-63
2023/05/24 06:22:15;;;;;;;12.88;10.07;;;;;;;;;;5094138;28;20131;-63
2023/05/24 06:24:42;;;;;;;11.07;9.80;;;;;;;;;;5094200;28;20107;-63
2023/05/24 06:27:08;;;;;;;10.63;9.57;;;;;;;;;;5094083;28;20054;-63
2023/05/24 06:29:33;;;;;;;11.23;9.48;;;;;;;;;;5060084;28;20422;-63
2023/05/24 06:31:58;;;;;;;11.20;10.10;;;;;;;;;;5076735;28;20040;-63
2023/05/24 06:34:24;;;;;;;11.40;10.30;;;;;;;;;;5095008;28;20455;-63
2023/05/24 06:36:50;;;;;;;13.30;9.93;;;;;;;;;;5095334;28;20055;-63
2023/05/24 06:39:16;;;;;;;12.63;9.48;;;;;;;;;;5094749;28;20143;-63
2023/05/24 06:41:42;;;;;;;9.52;8.55;;;;;;;;;;5094651;28;20456;-63
2023/05/24 06:44:07;;;;;;;10.70;8.45;;;;;;;;;;5094950;28;20052;-63
2023/05/24 06:46:33;;;;;;;10.48;8.77;;;;;;;;;;5076469;28;20528;-63
2023/05/24 06:48:58;;;;;;;10.55;8.13;;;;;;;;;;5095103;28;20079;-63
2023/05/24 06:51:23;;;;;;;9.63;8.65;;;;;;;;;;5094819;28;20027;-66
2023/05/24 06:53:49;;;;;;;11.48;9.13;;;;;;;;;;5095034;28;20134;-64
2023/05/24 06:56:15;;;;;;;12.60;9.00;;;;;;;;;;5094627;28;20027;-65
2023/05/24 06:58:40;;;;;;;9.15;8.18;;;;;;;;;;5094672;28;20081;-65
2023/05/24 07:01:06;;;;;;;9.52;8.30;;;;;;;;;;5094340;28;20562;-65
2023/05/24 07:03:31;;;;;;;8.13;7.32;;;;;;;;;;5077046;28;20111;-65
2023/05/24 07:05:57;;;;;;;10.93;7.85;;;;;;;;;;5075994;28;20032;-65
2023/05/24 07:08:23;;;;;;;10.65;7.95;;;;;;;;;;5076340;28;20039;-65
2023/05/24 07:10:48;;;;;;;10.88;7.85;;;;;;;;;;5059417;28;20026;-65
2023/05/24 07:13:14;;;;;;;10.25;8.05;;;;;;;;;;5094436;28;20137;-64
2023/05/24 07:15:40;;;;;;;9.25;8.27;;;;;;;;;;5094394;28;20118;-68
2023/05/24 07:18:06;;;;;;;8.15;7.05;;;;;;;;;;5094076;28;20036;-69
2023/05/24 07:20:31;;;;;;;7.38;6.47;;;;;;;;;;5094569;28;20031;-69
2023/05/24 07:22:57;;;;;;;7.53;6.40;;;;;;;;;;5075251;28;20135;-69
2023/05/24 07:25:23;;;;;;;7.00;6.32;;;;;;;;;;5093920;28;20395;-69
2023/05/24 07:27:49;;;;;;;7.78;5.72;;;;;;;;;;5093983;28;20036;-68
2023/05/24 07:30:14;;;;;;;7.47;5.53;;;;;;;;;;5075799;28;20077;-69
2023/05/24 07:32:39;;;;;;;5.93;5.32;;;;;;;;;;5094164;28;20111;-69
2023/05/24 07:35:05;;;;;;;6.05;5.45;;;;;;;;;;5094425;28;20074;-69
2023/05/24 07:37:30;;;;;;;6.72;5.53;;;;;;;;;;5094012;28;20032;-68
2023/05/24 07:39:56;;;;;;;6.38;5.60;;;;;;;;;;5094094;28;20024;-69
2023/05/24 07:42:21;;;;;;;5.93;5.10;;;;;;;;;;5093704;28;20159;-69
2023/05/24 07:44:46;;;;;;;7.90;5.57;;;;;;;;;;5093700;28;20028;-69
2023/05/24 07:47:12;;;;;;;5.25;4.82;;;;;;;;;;5075553;28;20028;-68
2023/05/24 07:49:37;;;;;;;7.32;5.05;;;;;;;;;;5093986;28;20028;-68
2023/05/24 07:52:03;;;;;;;6.63;5.78;;;;;;;;;;5093642;28;20032;-68
2023/05/24 07:54:28;;;;;;;5.28;4.78;;;;;;;;;;5093601;28;20020;-68
2023/05/24 07:56:53;;;;;;;5.28;4.65;;;;;;;;;;5093778;28;20075;-68
2023/05/24 07:59:19;;;;;;;5.55;4.72;;;;;;;;;;5093572;28;20035;-68
2023/05/24 08:01:44;;;;;;;5.05;4.60;;;;;;;;;;5093527;28;20061;-69
2023/05/24 08:04:10;;;;;;;4.93;4.53;;;;;;;;;;5093429;28;20043;-68
2023/05/24 08:06:35;;;;;;;5.07;4.45;;;;;;;;;;5093699;28;20020;-69
2023/05/24 08:09:02;;;;;;;5.15;4.47;;;;;;;;;;5075375;28;20036;-69
2023/05/24 08:11:28;;;;;;;5.90;4.95;;;;;;;;;;5093459;28;20069;-68
2023/05/24 08:13:53;;;;;;;5.10;4.65;;;;;;;;;;5093699;28;20017;-69
2023/05/24 08:16:18;;;;;;;6.25;4.97;;;;;;;;;;5093692;28;20036;-69
2023/05/24 08:18:44;;;;;;;4.13;3.83;;;;;;;;;;5093357;28;20031;-69
2023/05/24 08:21:09;;;;;;;5.15;4.70;;;;;;;;;;5075279;28;20464;-69
2023/05/24 08:23:35;;;;;;;7.72;5.22;;;;;;;;;;5093209;28;20047;-69
2023/05/24 08:26:01;;;;;;;5.57;5.03;;;;;;;;;;5093578;28;20032;-68
2023/05/24 08:28:27;;;;;;;7.53;5.32;;;;;;;;;;5093434;28;20040;-67
2023/05/24 08:30:53;;;;;;;5.80;5.25;;;;;;;;;;5093289;28;20082;-67
2023/05/24 08:33:21;;;;;;;6.43;5.80;;;;;;;;;;5075110;28;20020;-67
2023/05/24 08:35:47;;;;;;;7.03;5.93;;;;;;;;;;5093769;28;20043;-67
2023/05/24 08:38:12;;;;;;;6.30;5.70;;;;;;;;;;5093508;28;20036;-68
2023/05/24 08:40:38;;;;;;;6.38;5.78;;;;;;;;;;5093166;28;20111;-69
2023/05/24 08:43:10;;;;;;;6.40;5.78;;;;;;;;;;5093417;28;20027;-68
2023/05/24 08:45:36;;;;;;;5.93;5.32;;;;;;;;;;5093054;28;20082;-67
2023/05/24 08:48:02;;;;;;;6.25;5.53;;;;;;;;;;5093077;28;20020;-67
2023/05/24 08:50:27;;;;;;;6.20;5.68;;;;;;;;;;5096432;28;20478;-67
2023/05/24 08:52:53;;;;;;;8.15;6.60;;;;;;;;;;5096777;28;20028;-64
2023/05/24 08:55:18;;;;;;;6.70;6.10;;;;;;;;;;5079004;28;20032;-64
2023/05/24 08:57:44;;;;;;;6.95;6.25;;;;;;;;;;5097212;28;20034;-64
2023/05/24 09:00:11;;;;;;;7.30;6.32;;;;;;;;;;5097248;28;20027;-66
2023/05/24 09:02:40;;;;;;;7.15;6.00;;;;;;;;;;5096700;28;20028;-64
2023/05/24 09:05:09;;;;;;;7.67;6.40;;;;;;;;;;5096834;28;20040;-64
2023/05/24 09:07:35;;;;;;;15.15;7.00;;;;;;;;;;5096802;28;20047;-64
2023/05/24 09:10:06;;;;;;;8.60;6.78;;;;;;;;;;5078809;28;20024;-66
2023/05/24 09:12:32;;;;;;;10.55;6.45;;;;;;;;;;5096716;28;20039;-66
2023/05/24 09:14:57;;;;;;;6.30;5.70;;;;;;;;;;5096273;28;20028;-66
2023/05/24 09:17:24;;;;;;;5.57;5.07;;;;;;;;;;5078592;28;20046;-64
2023/05/24 09:19:51;;;;;;;6.00;5.18;;;;;;;;;;5096607;28;20028;-64
2023/05/24 09:22:19;;;;;;;5.80;5.22;;;;;;;;;;5096239;28;20039;-64
2023/05/24 09:24:47;;;;;;;5.75;5.22;;;;;;;;;;5096230;28;20109;-66
2023/05/24 09:27:16;;;;;;;5.43;4.93;;;;;;;;;;5078065;28;20047;-66
2023/05/24 09:29:45;;;;;;;5.43;4.90;;;;;;;;;;5096166;28;20039;-68
2023/05/24 09:32:11;;;;;;;5.65;5.13;;;;;;;;;;5096372;28;20046;-67
2023/05/24 09:34:37;;;;;;;4.88;4.47;;;;;;;;;;5077921;28;20387;-67
2023/05/24 09:37:06;;;;;;;5.03;4.53;;;;;;;;;;5095888;28;20468;-67
2023/05/24 09:39:32;;;;;;;4.68;4.28;;;;;;;;;;5096222;28;20030;-67
2023/05/24 09:41:57;;;;;;;4.93;4.53;;;;;;;;;;5095910;28;20388;-67
2023/05/24 09:44:23;;;;;;;5.15;4.65;;;;;;;;;;5077675;28;20035;-67
2023/05/24 09:46:49;;;;;;;4.75;4.35;;;;;;;;;;5095843;28;20036;-67
2023/05/24 09:49:14;;;;;;;4.85;4.50;;;;;;;;;;5096060;28;20046;-67
2023/05/24 09:51:39;;;;;;;4.70;4.38;;;;;;;;;;5095715;28;20384;-67
2023/05/24 09:54:05;;;;;;;4.30;3.97;;;;;;;;;;5096207;28;20063;-67
2023/05/24 09:56:32;;;;;;;4.88;4.47;;;;;;;;;;5095887;28;20035;-67
2023/05/24 09:58:57;;;;;;;4.55;4.15;;;;;;;;;;5096398;28;20039;-66
2023/05/24 10:01:24;;;;;;;5.97;5.35;;;;;;;;;;5094541;28;20020;-67
2023/05/24 10:03:53;;;;;;;5.38;4.88;;;;;;;;;;5095438;28;20036;-67
2023/05/24 10:06:19;;;;;;;5.88;5.38;;;;;;;;;;5095570;28;20036;-67
2023/05/24 10:08:47;;;;;;;6.18;5.57;;;;;;;;;;5095645;28;20069;-67
2023/05/24 10:11:12;;;;;;;6.13;5.25;;;;;;;;;;5095321;28;20016;-67
2023/05/24 10:13:38;;;;;;;5.93;5.32;;;;;;;;;;5095251;28;20360;-67
2023/05/24 10:19:10;;;;;;;5.60;4.97;;;;;;;;;;5075047;23;20106;-68
2023/05/24 10:21:40;;;;;;;4.75;4.45;;;;;;;;;;5098410;22;20451;-66
2023/05/24 10:24:08;;;;;;;5.20;4.55;;;;;;;;;;5076969;28;20023;-64
2023/05/24 10:26:36;;;;;;;5.10;4.55;;;;;;;;;;5095221;28;20040;-66
2023/05/24 10:29:09;;;;;;;5.03;4.53;;;;;;;;;;5060158;28;20065;-66
2023/05/24 10:31:39;;;;;;;5.55;5.00;;;;;;;;;;5095232;28;20024;-64
2023/05/24 10:34:05;;;;;;;6.65;4.60;;;;;;;;;;5095236;28;20082;-64
2023/05/24 10:36:31;;;;;;;5.60;4.63;;;;;;;;;;5095098;28;20034;-64
2023/05/24 10:38:57;;;;;;;5.38;4.88;;;;;;;;;;5095086;28;20071;-64
2023/05/24 10:41:25;;;;;;;6.10;5.53;;;;;;;;;;5094774;28;20063;-64
2023/05/24 10:43:51;;;;;;;7.10;5.72;;;;;;;;;;5094980;28;20060;-64
2023/05/24 10:46:17;;;;;;;6.72;5.95;;;;;;;;;;5076784;28;20036;-64
2023/05/24 10:48:43;;;;;;;6.05;5.45;;;;;;;;;;5110349;28;20024;-64
2023/05/24 10:51:28;;;;;;;10.48;6.05;;;;;;;;;;5060036;28;20028;-64
2023/05/24 10:53:55;;;;;;;7.43;6.15;;;;;;;;;;5076405;28;20036;-66
2023/05/24 10:56:22;;;;;;;7.18;5.57;;;;;;;;;;5094760;28;20073;-66
2023/05/24 10:58:53;;;;;;;6.22;5.57;;;;;;;;;;5094422;28;20038;-66
2023/05/24 11:01:32;;;;;;;5.65;5.00;;;;;;;;;;5094949;28;20036;-64
2023/05/24 11:04:07;;;;;;;6.90;5.47;;;;;;;;;;5094897;28;20114;-64
2023/05/24 11:06:44;;;;;;;6.28;5.65;;;;;;;;;;5094513;28;20440;-64
2023/05/24 11:09:10;;;;;;;6.57;5.53;;;;;;;;;;5094798;28;20028;-64
2023/05/24 11:11:37;;;;;;;6.20;5.60;;;;;;;;;;5094120;28;20050;-64
2023/05/24 11:14:04;;;;;;;6.18;5.10;;;;;;;;;;5094173;28;20020;-64
2023/05/24 11:16:35;;;;;;;5.93;5.25;;;;;;;;;;5094679;28;20039;-64
2023/05/24 11:19:15;;;;;;;6.45;5.65;;;;;;;;;;5076788;28;20123;-64
2023/05/24 11:21:42;;;;;;;6.28;5.68;;;;;;;;;;5093826;28;20043;-64
2023/05/24 11:24:08;;;;;;;7.28;5.35;;;;;;;;;;5094277;28;20491;-64
2023/05/24 11:26:33;;;;;;;7.03;5.90;;;;;;;;;;5093908;28;20387;-64
2023/05/24 11:29:03;;;;;;;6.85;5.63;;;;;;;;;;5075826;28;20031;-64
2023/05/24 11:31:29;;;;;;;6.25;5.05;;;;;;;;;;5075800;28;20020;-64
2023/05/24 11:33:54;;;;;;;7.35;5.30;;;;;;;;;;5094152;28;20031;-64
2023/05/24 11:36:19;;;;;;;6.18;5.40;;;;;;;;;;5093790;28;20383;-66
2023/05/24 11:38:46;;;;;;;5.03;4.60;;;;;;;;;;5094111;28;20028;-64
2023/05/24 11:41:12;;;;;;;6.00;4.85;;;;;;;;;;5093772;28;20032;-64
2023/05/24 11:43:37;;;;;;;5.25;4.32;;;;;;;;;;5093737;28;20119;-64
2023/05/24 11:46:02;;;;;;;6.03;5.07;;;;;;;;;;5093636;28;20119;-64
2023/05/24 11:48:29;;;;;;;4.85;4.45;;;;;;;;;;5093969;28;20091;-64
2023/05/24 11:50:55;;;;;;;5.22;4.70;;;;;;;;;;5075707;28;20452;-64
2023/05/24 11:53:21;;;;;;;5.80;5.15;;;;;;;;;;5093933;28;20082;-64
2023/05/24 11:55:47;;;;;;;5.88;4.55;;;;;;;;;;5092396;28;20067;-64
2023/05/24 11:58:15;;;;;;;6.10;4.40;;;;;;;;;;5075526;28;20087;-64
2023/05/24 12:00:41;;;;;;;4.90;4.40;;;;;;;;;;5093844;28;20055;-66
2023/05/24 12:03:08;;;;;;;4.95;4.45;;;;;;;;;;5093601;28;20464;-66
2023/05/24 12:05:35;;;;;;;4.55;4.15;;;;;;;;;;5093768;28;20074;-66
2023/05/24 12:08:04;;;;;;;5.03;4.53;;;;;;;;;;5094059;28;20021;-66
2023/05/24 12:10:34;;;;;;;5.47;4.70;;;;;;;;;;5075794;28;20028;-64
2023/05/24 12:12:59;;;;;;;4.13;3.80;;;;;;;;;;5093509;28;20113;-65
2023/05/24 12:15:25;;;;;;;7.93;5.00;;;;;;;;;;5093773;28;20349;-64
2023/05/24 12:17:51;;;;;;;4.60;4.20;;;;;;;;;;5093960;28;20032;-64
2023/05/24 12:20:17;;;;;;;5.28;4.03;;;;;;;;;;5093409;28;20032;-64
2023/05/24 12:22:52;;;;;;;4.78;4.38;;;;;;;;;;5093365;28;20051;-64
2023/05/24 12:25:20;;;;;;;6.40;4.85;;;;;;;;;;5096598;28;20036;-64
2023/05/24 12:27:48;;;;;;;5.45;4.97;;;;;;;;;;5097329;28;20024;-64
2023/05/24 12:30:19;;;;;;;5.43;4.93;;;;;;;;;;5097861;28;20111;-64
2023/05/24 12:32:45;;;;;;;6.15;5.30;;;;;;;;;;5079760;28;20028;-64
2023/05/24 12:35:11;;;;;;;4.93;4.53;;;;;;;;;;5097480;28;20012;-64
2023/05/24 12:37:37;;;;;;;5.10;4.60;;;;;;;;;;5079368;28;20039;-64
2023/05/24 12:40:04;;;;;;;4.88;4.38;;;;;;;;;;5097397;28;20032;-64
2023/05/24 12:42:29;;;;;;;5.47;4.25;;;;;;;;;;5097302;28;20028;-64
2023/05/24 12:44:55;;;;;;;4.95;4.10;;;;;;;;;;5078729;28;20027;-64
2023/05/24 12:47:20;;;;;;;4.57;4.20;;;;;;;;;;5097006;28;20024;-64
2023/05/24 12:49:46;;;;;;;4.95;4.55;;;;;;;;;;5078793;28;20115;-66
2023/05/24 12:52:11;;;;;;;5.60;5.00;;;;;;;;;;5097179;28;20133;-64
2023/05/24 12:54:37;;;;;;;6.05;4.00;;;;;;;;;;5097145;28;20115;-64
2023/05/24 12:57:02;;;;;;;5.47;4.43;;;;;;;;;;5097083;28;20111;-64
2023/05/24 12:59:28;;;;;;;4.63;4.22;;;;;;;;;;5097052;28;20119;-68
2023/05/24 13:01:53;;;;;;;6.10;4.95;;;;;;;;;;5078697;28;20031;-69
2023/05/24 13:04:20;;;;;;;6.40;4.65;;;;;;;;;;5096649;28;20410;-67
2023/05/24 13:06:46;;;;;;;6.70;4.97;;;;;;;;;;5096525;28;20078;-67
2023/05/24 13:09:12;;;;;;;4.63;4.07;;;;;;;;;;5096552;28;20099;-67
2023/05/24 13:11:38;;;;;;;6.00;4.30;;;;;;;;;;5096501;28;20055;-67
2023/05/24 13:14:04;;;;;;;4.97;4.47;;;;;;;;;;5078340;28;20498;-67
2023/05/24 13:16:29;;;;;;;5.28;4.60;;;;;;;;;;5096482;28;20368;-67
2023/05/24 13:18:55;;;;;;;4.70;4.30;;;;;;;;;;5096111;28;20028;-70
2023/05/24 13:21:20;;;;;;;4.28;3.97;;;;;;;;;;5096175;28;20067;-66
2023/05/24 13:23:46;;;;;;;4.10;3.67;;;;;;;;;;5094933;28;20097;-65
2023/05/24 13:26:11;;;;;;;5.65;5.18;;;;;;;;;;5095004;28;20035;-66
2023/05/24 13:28:37;;;;;;;3.72;3.42;;;;;;;;;;5094959;28;20039;-67
2023/05/24 13:31:05;;;;;;;4.13;3.78;;;;;;;;;;5077236;28;20076;-67
2023/05/24 13:33:30;;;;;;;4.03;3.72;;;;;;;;;;5095952;28;20035;-68
2023/05/24 13:35:56;;;;;;;4.50;4.10;;;;;;;;;;5077898;28;20547;-68
2023/05/24 13:38:22;;;;;;;4.20;3.80;;;;;;;;;;5078355;28;20036;-67
2023/05/24 13:40:50;;;;;;;4.63;4.22;;;;;;;;;;5095880;28;20043;-67
2023/05/24 13:43:15;;;;;;;4.00;3.70;;;;;;;;;;5095910;28;20036;-66
2023/05/24 13:45:41;;;;;;;4.60;4.20;;;;;;;;;;5095952;28;20020;-65
2023/05/24 13:48:06;;;;;;;4.07;3.75;;;;;;;;;;5077935;28;20028;-67
2023/05/24 13:50:33;;;;;;;6.65;4.60;;;;;;;;;;5095843;28;20020;-67
2023/05/24 13:53:02;;;;;;;4.40;4.00;;;;;;;;;;5077492;28;20413;-68
2023/05/24 13:55:32;;;;;;;3.90;3.63;;;;;;;;;;5076973;28;20042;-66
2023/05/24 13:58:00;;;;;;;3.45;3.15;;;;;;;;;;5095259;28;20376;-67
2023/05/24 14:00:26;;;;;;;5.00;4.03;;;;;;;;;;5095265;28;20035;-64
2023/05/24 14:02:51;;;;;;;3.78;3.50;;;;;;;;;;5091689;28;20364;-63
2023/05/24 14:05:17;;;;;;;5.80;4.53;;;;;;;;;;5095524;28;20700;-64
2023/05/24 14:07:42;;;;;;;5.30;4.80;;;;;;;;;;5077483;28;20032;-64
2023/05/24 14:10:08;;;;;;;5.15;4.70;;;;;;;;;;5094930;28;20359;-63
2023/05/24 14:12:34;;;;;;;5.28;4.78;;;;;;;;;;5095456;28;20379;-64
2023/05/24 14:15:00;;;;;;;5.10;4.68;;;;;;;;;;5094766;28;20012;-64
2023/05/24 14:17:26;;;;;;;5.70;5.20;;;;;;;;;;5094417;28;20028;-66
2023/05/24 14:19:51;;;;;;;5.60;4.70;;;;;;;;;;5076301;28;20506;-64
2023/05/24 14:22:16;;;;;;;5.55;5.05;;;;;;;;;;5094215;28;20044;-64
2023/05/24 14:24:42;;;;;;;5.00;4.60;;;;;;;;;;5094783;28;20460;-65
2023/05/24 14:27:07;;;;;;;6.05;5.20;;;;;;;;;;5094761;28;20036;-66
2023/05/24 14:29:32;;;;;;;4.97;4.60;;;;;;;;;;5076806;28;20027;-66
2023/05/24 14:31:58;;;;;;;5.50;5.00;;;;;;;;;;5087209;28;20057;-66
2023/05/24 14:34:23;;;;;;;6.18;5.22;;;;;;;;;;5095133;28;20032;-66
2023/05/24 14:36:49;;;;;;;6.07;5.47;;;;;;;;;;5094843;28;20062;-66
2023/05/24 14:39:14;;;;;;;6.40;5.38;;;;;;;;;;5095077;28;20023;-66